createdAt,value
2022-08-29T00:01:33.714Z,2.38
2022-08-29T00:04:02.278Z,2.55
2022-08-29T00:06:30.528Z,2.42
2022-08-29T00:08:57.983Z,2.50
2022-08-29T00:11:25.589Z,2.70
2022-08-29T00:13:53.093Z,2.50
2022-08-29T00:16:21.681Z,2.60
2022-08-29T00:18:51.918Z,2.83
2022-08-29T00:21:21.352Z,2.97
2022-08-29T00:23:48.767Z,2.92
2022-08-29T00:26:16.217Z,2.88
2022-08-29T00:28:43.696Z,2.90
2022-08-29T00:31:11.303Z,2.70
2022-08-29T00:33:39.334Z,2.72
2022-08-29T00:36:08.313Z,3.28
2022-08-29T00:38:36.711Z,3.08
2022-08-29T00:41:04.927Z,2.95
2022-08-29T00:43:34.877Z,2.47
2022-08-29T00:46:11.631Z,2.90
2022-08-29T00:48:41.140Z,2.80
2022-08-29T00:51:15.089Z,3.28
2022-08-29T00:53:45.770Z,2.97
2022-08-29T00:56:17.262Z,2.85
2022-08-29T00:58:53.426Z,2.77
2022-08-29T01:01:23.244Z,3.20
2022-08-29T01:03:52.614Z,3.08
2022-08-29T01:06:22.433Z,2.85
2022-08-29T01:08:57.241Z,2.97
2022-08-29T01:11:46.535Z,2.90
2022-08-29T01:14:15.754Z,3.00
2022-08-29T01:16:43.647Z,2.70
2022-08-29T01:19:43.314Z,3.30
2022-08-29T01:22:29.903Z,3.33
2022-08-29T01:24:58.878Z,3.50
2022-08-29T01:27:30.372Z,4.13
2022-08-29T01:29:59.236Z,3.70
2022-08-29T01:32:27.446Z,3.53
2022-08-29T01:34:54.940Z,3.63
2022-08-29T01:37:22.590Z,3.05
2022-08-29T01:39:50.192Z,3.22
2022-08-29T01:42:21.607Z,3.75
2022-08-29T01:44:56.137Z,3.70
2022-08-29T01:47:28.073Z,3.97
2022-08-29T01:49:56.387Z,4.00
2022-08-29T01:52:24.397Z,4.45
2022-08-29T01:54:52.142Z,4.03
2022-08-29T01:57:19.706Z,3.88
2022-08-29T01:59:47.542Z,4.43
2022-08-29T02:02:19.633Z,4.65
2022-08-29T02:04:48.496Z,5.20
2022-08-29T02:07:17.826Z,4.13
2022-08-29T02:09:46.187Z,4.60
2022-08-29T02:12:14.862Z,4.40
2022-08-29T02:14:43.028Z,4.70
2022-08-29T02:17:11.314Z,4.85
2022-08-29T02:19:39.360Z,5.28
2022-08-29T02:22:07.714Z,5.82
2022-08-29T02:24:35.453Z,6.07
2022-08-29T02:27:03.137Z,6.15
2022-08-29T02:29:37.504Z,6.28
2022-08-29T02:32:09.456Z,6.55
2022-08-29T02:34:37.814Z,6.80
2022-08-29T02:37:06.255Z,7.53
2022-08-29T02:39:34.398Z,6.93
2022-08-29T02:42:02.359Z,5.55
2022-08-29T02:44:29.927Z,6.07
2022-08-29T02:46:57.488Z,6.22
2022-08-29T02:49:25.045Z,7.63
2022-08-29T02:51:55.362Z,6.25
2022-08-29T02:54:23.655Z,6.30
2022-08-29T02:56:51.314Z,6.85
2022-08-29T02:59:18.770Z,6.45
2022-08-29T03:01:47.054Z,7.05
2022-08-29T03:04:14.579Z,6.55
2022-08-29T03:06:42.094Z,6.72
2022-08-29T03:09:09.703Z,6.75
2022-08-29T03:11:37.176Z,7.18
2022-08-29T03:14:04.946Z,6.95
2022-08-29T03:16:32.406Z,6.47
2022-08-29T03:18:59.832Z,6.78
2022-08-29T03:21:27.745Z,7.22
2022-08-29T03:23:56.455Z,7.03
2022-08-29T03:26:24.911Z,7.45
2022-08-29T03:28:52.686Z,7.72
2022-08-29T03:31:20.859Z,8.07
2022-08-29T03:33:48.435Z,8.85
2022-08-29T03:36:16.312Z,7.57
2022-08-29T03:38:46.479Z,7.43
2022-08-29T03:41:22.515Z,8.05
2022-08-29T03:43:50.442Z,7.78
2022-08-29T03:46:18.005Z,7.65
2022-08-29T03:48:45.574Z,8.85
2022-08-29T03:51:13.084Z,8.65
2022-08-29T03:53:40.868Z,8.00
2022-08-29T03:56:14.034Z,8.10
2022-08-29T03:58:52.857Z,8.32
2022-08-29T04:01:26.942Z,8.68
2022-08-29T04:03:55.734Z,8.70
2022-08-29T04:06:25.054Z,9.07
2022-08-29T04:08:53.246Z,9.30
2022-08-29T04:11:24.020Z,8.35
2022-08-29T04:13:53.063Z,8.63
2022-08-29T04:16:30.938Z,9.10
2022-08-29T04:18:59.958Z,8.85
2022-08-29T04:21:27.804Z,9.65
2022-08-29T04:23:55.550Z,9.07
2022-08-29T04:26:38.478Z,8.45
2022-08-29T04:29:08.808Z,8.48
2022-08-29T04:31:37.231Z,8.63
2022-08-29T04:34:06.536Z,8.52
2022-08-29T04:36:38.660Z,9.32
2022-08-29T04:39:06.498Z,9.32
2022-08-29T04:41:35.039Z,9.48
2022-08-29T04:44:03.402Z,8.57
2022-08-29T04:46:32.201Z,9.73
2022-08-29T04:49:03.939Z,9.10
2022-08-29T04:51:35.737Z,8.93
2022-08-29T04:54:04.636Z,9.57
2022-08-29T04:56:32.196Z,9.43
2022-08-29T04:58:59.682Z,9.55
2022-08-29T05:01:27.551Z,9.73
2022-08-29T05:03:56.531Z,9.43
2022-08-29T05:06:25.185Z,9.25
2022-08-29T05:08:59.404Z,8.95
2022-08-29T05:11:29.833Z,8.60
2022-08-29T05:13:58.738Z,8.60
2022-08-29T05:16:26.323Z,8.98
2022-08-29T05:18:53.866Z,8.80
2022-08-29T05:21:27.626Z,9.77
2022-08-29T05:23:58.673Z,9.98
2022-08-29T05:26:40.106Z,10.35
2022-08-29T05:29:11.612Z,10.32
2022-08-29T05:31:41.248Z,9.80
2022-08-29T05:34:32.288Z,11.07
2022-08-29T05:36:59.631Z,10.82
2022-08-29T05:39:27.033Z,10.95
2022-08-29T05:41:58.514Z,10.38
2022-08-29T05:44:29.554Z,9.63
2022-08-29T05:47:03.430Z,10.00
2022-08-29T05:49:30.817Z,10.05
2022-08-29T05:52:00.679Z,9.73
2022-08-29T05:54:30.238Z,9.32
2022-08-29T05:56:58.124Z,10.43
2022-08-29T05:59:25.765Z,10.55
2022-08-29T06:01:53.218Z,9.77
2022-08-29T06:04:20.928Z,9.13
2022-08-29T06:06:48.491Z,9.90
2022-08-29T06:09:15.930Z,8.23
2022-08-29T06:11:48.342Z,6.93
2022-08-29T06:14:16.971Z,7.35
2022-08-29T06:16:44.386Z,7.50
2022-08-29T06:19:12.648Z,8.20
2022-08-29T06:21:40.129Z,8.27
2022-08-29T06:24:07.998Z,8.38
2022-08-29T06:26:35.754Z,7.82
2022-08-29T06:29:07.946Z,8.20
2022-08-29T06:31:36.075Z,7.70
2022-08-29T06:34:06.870Z,8.43
2022-08-29T06:36:37.000Z,8.50
2022-08-29T06:39:09.771Z,7.25
2022-08-29T06:41:42.139Z,6.93
2022-08-29T06:44:10.573Z,6.55
2022-08-29T06:46:41.141Z,5.85
2022-08-29T06:49:11.996Z,5.95
2022-08-29T06:51:42.398Z,6.80
2022-08-29T06:54:13.611Z,6.40
2022-08-29T06:56:42.372Z,6.93
2022-08-29T06:59:10.384Z,6.30
2022-08-29T07:01:38.454Z,5.93
2022-08-29T07:04:06.138Z,5.85
2022-08-29T07:06:43.149Z,5.93
2022-08-29T07:09:11.114Z,5.57
2022-08-29T07:11:41.310Z,5.07
2022-08-29T07:14:09.561Z,5.20
2022-08-29T07:16:37.665Z,4.88
2022-08-29T07:19:07.055Z,4.90
2022-08-29T07:21:34.975Z,5.00
2022-08-29T07:24:03.238Z,4.85
2022-08-29T07:26:38.739Z,4.22
2022-08-29T07:29:10.998Z,4.35
2022-08-29T07:31:39.250Z,5.72
2022-08-29T07:34:07.839Z,5.82
2022-08-29T07:36:36.313Z,5.72
2022-08-29T07:39:08.824Z,6.43
2022-08-29T07:41:38.870Z,5.60
2022-08-29T07:44:06.717Z,5.10
2022-08-29T07:46:34.822Z,5.53
2022-08-29T07:49:02.532Z,4.80
2022-08-29T07:51:30.261Z,5.03
2022-08-29T07:53:57.833Z,4.25
2022-08-29T07:56:34.545Z,4.88
2022-08-29T07:59:08.086Z,4.47
2022-08-29T08:01:36.464Z,4.97
2022-08-29T08:04:04.549Z,5.57
2022-08-29T08:06:34.441Z,5.65
2022-08-29T08:09:05.458Z,4.30
2022-08-29T08:11:33.416Z,4.85
2022-08-29T08:14:02.198Z,4.65
2022-08-29T08:16:30.539Z,4.85
2022-08-29T08:18:58.477Z,4.63
2022-08-29T08:21:27.170Z,4.53
2022-08-29T08:23:54.778Z,3.88
2022-08-29T08:26:23.110Z,4.93
2022-08-29T08:28:51.166Z,4.50
2022-08-29T08:31:19.415Z,4.20
2022-08-29T08:33:47.287Z,3.40
2022-08-29T08:36:16.089Z,3.65
2022-08-29T08:38:44.354Z,4.05
2022-08-29T08:41:27.559Z,4.40
2022-08-29T08:43:58.198Z,3.72
2022-08-29T08:46:31.122Z,5.30
2022-08-29T08:49:06.030Z,5.82
2022-08-29T08:51:35.522Z,5.13
2022-08-29T08:54:08.844Z,5.47
2022-08-29T08:56:42.450Z,4.55
2022-08-29T08:59:20.901Z,4.40
2022-08-29T09:02:06.641Z,4.60
2022-08-29T09:04:54.053Z,4.28
2022-08-29T09:07:25.556Z,4.18
2022-08-29T09:13:04.382Z,6.13
2022-08-29T09:15:42.658Z,8.30
2022-08-29T09:18:27.281Z,4.15
2022-08-29T09:20:55.162Z,3.85
2022-08-29T09:23:41.225Z,4.40
2022-08-29T09:26:13.121Z,4.53
2022-08-29T09:28:41.019Z,3.92
2022-08-29T09:31:17.276Z,4.35
2022-08-29T09:33:49.175Z,3.85
2022-08-29T09:36:42.824Z,3.75
2022-08-29T09:39:34.040Z,4.28
2022-08-29T09:42:13.655Z,4.45
2022-08-29T09:44:51.151Z,4.18
2022-08-29T09:47:29.854Z,4.05
2022-08-29T09:50:09.229Z,6.28
2022-08-29T09:52:51.671Z,5.78
2022-08-29T09:55:21.723Z,4.03
2022-08-29T09:57:56.988Z,4.15
2022-08-29T10:00:28.342Z,3.45
2022-08-29T10:02:59.358Z,5.22
2022-08-29T10:05:35.907Z,4.90
2022-08-29T10:08:06.486Z,4.55
2022-08-29T10:10:36.506Z,5.47
2022-08-29T10:13:22.668Z,4.25
2022-08-29T10:16:08.327Z,5.45
2022-08-29T10:18:58.915Z,4.65
2022-08-29T10:21:47.214Z,5.03
2022-08-29T10:24:49.058Z,5.38
2022-08-29T10:30:07.729Z,5.03
2022-08-29T10:32:41.213Z,5.35
2022-08-29T10:35:17.707Z,5.22
2022-08-29T10:38:14.228Z,4.45
2022-08-29T10:40:58.549Z,4.97
2022-08-29T10:43:58.242Z,5.80
2022-08-29T10:46:44.374Z,4.40
2022-08-29T10:49:27.730Z,4.50
2022-08-29T10:52:29.638Z,4.20
2022-08-29T10:57:47.378Z,3.90
2022-08-29T11:00:22.743Z,4.18
2022-08-29T11:03:08.205Z,4.38
2022-08-29T11:05:53.843Z,5.63
2022-08-29T11:08:43.014Z,4.80
2022-08-29T11:11:10.472Z,5.25
2022-08-29T11:13:43.922Z,4.47
2022-08-29T11:16:34.043Z,5.60
2022-08-29T11:19:22.733Z,5.50
2022-08-29T11:22:09.757Z,5.57
2022-08-29T11:24:42.004Z,5.30
2022-08-29T11:27:37.234Z,6.20
2022-08-29T11:30:24.870Z,5.82
2022-08-29T11:33:04.007Z,6.70
2022-08-29T11:35:43.547Z,6.25
2022-08-29T11:38:52.487Z,5.18
2022-08-29T11:41:41.174Z,5.10
2022-08-29T11:44:19.275Z,5.47
2022-08-29T11:46:53.492Z,6.03
2022-08-29T11:49:45.459Z,5.70
2022-08-29T11:52:22.448Z,5.20
2022-08-29T11:55:21.289Z,4.90
2022-08-29T11:57:53.786Z,5.90
2022-08-29T12:00:37.645Z,4.65
2022-08-29T12:03:34.949Z,6.95
2022-08-29T12:06:24.467Z,6.35
2022-08-29T12:09:19.346Z,5.57
2022-08-29T12:12:04.553Z,4.78
2022-08-29T12:14:42.388Z,5.13
2022-08-29T12:17:31.870Z,4.80
2022-08-29T12:20:10.234Z,4.30
2022-08-29T12:25:55.192Z,5.10
2022-08-29T12:28:47.112Z,3.80
2022-08-29T12:31:23.868Z,3.60
2022-08-29T12:34:03.858Z,3.85
2022-08-29T12:37:16.277Z,3.85
2022-08-29T12:40:03.942Z,4.28
2022-08-29T12:42:54.963Z,4.10
2022-08-29T12:45:31.795Z,4.05
2022-08-29T12:48:04.779Z,3.28
2022-08-29T12:50:43.904Z,3.38
2022-08-29T12:53:27.754Z,3.33
2022-08-29T12:55:58.233Z,3.53
2022-08-29T12:58:36.945Z,3.70
2022-08-29T13:01:09.406Z,3.33
2022-08-29T13:03:36.939Z,3.58
2022-08-29T13:06:08.560Z,3.53
2022-08-29T13:08:39.343Z,3.58
2022-08-29T13:11:10.639Z,3.67
2022-08-29T13:13:38.620Z,3.72
2022-08-29T13:16:08.065Z,4.07
2022-08-29T13:18:53.662Z,3.80
2022-08-29T13:21:25.115Z,3.22
2022-08-29T13:24:19.972Z,3.33
2022-08-29T13:27:03.361Z,3.20
2022-08-29T13:29:42.032Z,3.70
2022-08-29T13:32:26.492Z,3.45
2022-08-29T13:35:08.928Z,3.58
2022-08-29T13:37:41.581Z,3.80
2022-08-29T13:40:32.383Z,2.97
2022-08-29T13:43:01.258Z,3.67
2022-08-29T13:45:28.838Z,3.22
2022-08-29T13:48:12.689Z,3.60
2022-08-29T13:50:40.989Z,3.42
2022-08-29T13:53:08.678Z,3.65
2022-08-29T13:55:36.443Z,3.60
2022-08-29T13:58:04.565Z,3.42
2022-08-29T14:00:35.464Z,3.50
2022-08-29T14:03:06.476Z,3.17
2022-08-29T14:05:35.355Z,3.85
2022-08-29T14:08:03.311Z,3.92
2022-08-29T14:10:30.780Z,4.10
2022-08-29T14:12:58.328Z,4.03
2022-08-29T14:15:26.587Z,3.70
2022-08-29T14:17:54.335Z,3.92
2022-08-29T14:20:22.380Z,3.60
2022-08-29T14:22:50.011Z,3.58
2022-08-29T14:25:20.033Z,3.67
2022-08-29T14:27:48.367Z,3.70
2022-08-29T14:30:19.202Z,4.10
2022-08-29T14:32:46.612Z,8.73
2022-08-29T14:35:25.994Z,5.50
2022-08-29T14:37:56.090Z,4.00
2022-08-29T14:40:25.602Z,4.32
2022-08-29T14:42:53.298Z,3.53
2022-08-29T14:45:21.199Z,3.50
2022-08-29T14:47:48.742Z,3.72
2022-08-29T14:50:16.230Z,4.10
2022-08-29T14:52:43.842Z,3.28
2022-08-29T14:55:12.680Z,3.75
2022-08-29T14:57:40.911Z,3.35
2022-08-29T15:00:15.701Z,3.38
2022-08-29T15:02:43.372Z,3.50
2022-08-29T15:05:11.939Z,3.83
2022-08-29T15:07:40.351Z,6.72
2022-08-29T15:10:08.262Z,5.20
2022-08-29T15:12:35.863Z,4.30
2022-08-29T15:15:04.117Z,4.18
2022-08-29T15:17:31.554Z,3.88
2022-08-29T15:22:46.714Z,3.67
2022-08-29T15:25:14.358Z,3.90
2022-08-29T15:27:41.953Z,4.00
2022-08-29T15:30:10.624Z,3.97
2022-08-29T15:32:39.084Z,5.03
2022-08-29T15:35:07.856Z,4.47
2022-08-29T15:37:42.310Z,4.10
2022-08-29T15:40:13.160Z,4.88
2022-08-29T15:42:41.307Z,4.40
2022-08-29T15:45:10.348Z,3.60
2022-08-29T15:47:39.859Z,3.28
2022-08-29T15:50:09.756Z,3.40
2022-08-29T15:52:37.999Z,3.67
2022-08-29T15:55:06.114Z,3.60
2022-08-29T15:57:33.671Z,3.70
2022-08-29T16:00:11.835Z,3.50
2022-08-29T16:02:44.282Z,3.55
2022-08-29T16:05:12.344Z,3.47
2022-08-29T16:07:39.814Z,3.55
2022-08-29T16:10:11.071Z,3.50
2022-08-29T16:12:39.801Z,3.85
2022-08-29T16:15:09.958Z,3.88
2022-08-29T16:17:38.124Z,3.90
2022-08-29T16:20:11.382Z,3.30
2022-08-29T16:22:40.343Z,3.35
2022-08-29T16:25:09.955Z,3.65
2022-08-29T16:27:37.550Z,3.72
2022-08-29T16:30:06.154Z,3.92
2022-08-29T16:32:33.942Z,3.85
2022-08-29T16:35:01.360Z,3.67
2022-08-29T16:37:29.040Z,3.65
2022-08-29T16:39:56.571Z,3.08
2022-08-29T16:42:27.557Z,3.50
2022-08-29T16:44:58.794Z,3.75
2022-08-29T16:47:27.902Z,3.92
2022-08-29T16:49:55.350Z,4.10
2022-08-29T16:52:22.838Z,3.72
2022-08-29T16:54:52.144Z,3.90
2022-08-29T16:57:22.663Z,4.10
2022-08-29T16:59:50.349Z,4.55
2022-08-29T17:02:18.485Z,4.18
2022-08-29T17:04:46.978Z,3.75
2022-08-29T17:07:14.708Z,3.60
2022-08-29T17:09:42.211Z,3.97
2022-08-29T17:12:09.922Z,3.78
2022-08-29T17:14:37.475Z,3.53
2022-08-29T17:17:05.436Z,3.75
2022-08-29T17:19:34.119Z,4.47
2022-08-29T17:22:01.916Z,4.20
2022-08-29T17:24:29.643Z,4.30
2022-08-29T17:26:57.683Z,3.85
2022-08-29T17:29:25.419Z,3.67
2022-08-29T17:31:53.645Z,3.78
2022-08-29T17:34:21.214Z,4.10
2022-08-29T17:36:49.745Z,3.60
2022-08-29T17:39:17.349Z,4.00
2022-08-29T17:41:50.611Z,4.07
2022-08-29T17:44:18.722Z,3.90
2022-08-29T17:46:49.361Z,3.70
2022-08-29T17:49:17.162Z,3.63
2022-08-29T17:51:45.098Z,4.10
2022-08-29T17:54:23.754Z,4.55
2022-08-29T17:56:54.863Z,4.28
2022-08-29T17:59:24.119Z,5.00
2022-08-29T18:01:51.849Z,5.40
2022-08-29T18:04:19.856Z,9.82
2022-08-29T18:06:47.423Z,10.75
2022-08-29T18:09:15.346Z,6.85
2022-08-29T18:11:46.831Z,10.63
2022-08-29T18:14:14.683Z,12.43
2022-08-29T18:16:42.327Z,11.15
2022-08-29T18:19:09.875Z,10.25
2022-08-29T18:21:37.492Z,11.07
2022-08-29T18:24:05.465Z,10.65
2022-08-29T18:26:34.924Z,10.60
2022-08-29T18:29:02.559Z,8.82
2022-08-29T18:31:30.025Z,6.72
2022-08-29T18:34:00.539Z,6.53
2022-08-29T18:36:30.408Z,6.95
2022-08-29T18:38:59.026Z,7.32
2022-08-29T18:41:26.866Z,7.32
2022-08-29T18:43:54.485Z,5.80
2022-08-29T18:46:22.245Z,7.25
2022-08-29T18:48:49.896Z,7.20
2022-08-29T18:51:17.562Z,5.30
2022-08-29T18:53:46.225Z,5.05
2022-08-29T18:56:13.947Z,4.65
2022-08-29T18:58:44.255Z,5.65
2022-08-29T19:01:27.355Z,7.88
2022-08-29T19:04:02.644Z,6.13
2022-08-29T19:06:30.642Z,6.60
2022-08-29T19:08:58.424Z,5.80
2022-08-29T19:11:28.223Z,8.35
2022-08-29T19:13:56.167Z,8.57
2022-08-29T19:16:24.103Z,7.97
2022-08-29T19:18:52.582Z,7.95
2022-08-29T19:21:20.273Z,7.28
2022-08-29T19:23:52.575Z,7.28
2022-08-29T19:26:32.983Z,6.38
2022-08-29T19:29:05.300Z,6.63
2022-08-29T19:31:32.985Z,7.38
2022-08-29T19:34:00.929Z,7.13
2022-08-29T19:36:28.402Z,7.13
2022-08-29T19:38:56.049Z,7.63
2022-08-29T19:44:11.396Z,7.63
2022-08-29T19:46:39.236Z,8.15
2022-08-29T19:51:40.340Z,7.65
2022-08-29T19:54:08.710Z,8.25
2022-08-29T19:56:40.138Z,8.60
2022-08-29T19:59:14.349Z,9.10
2022-08-29T20:01:45.008Z,7.80
2022-08-29T20:04:12.895Z,7.28
2022-08-29T20:06:40.358Z,7.40
2022-08-29T20:09:11.810Z,7.03
2022-08-29T20:11:43.921Z,7.30
2022-08-29T20:14:11.538Z,7.25
2022-08-29T20:16:42.019Z,7.28
2022-08-29T20:19:11.936Z,6.97
2022-08-29T20:21:40.945Z,7.57
2022-08-29T20:24:08.398Z,7.10
2022-08-29T20:26:37.575Z,7.75
2022-08-29T20:29:07.791Z,7.30
2022-08-29T20:31:36.358Z,7.55
2022-08-29T20:34:04.059Z,7.47
2022-08-29T20:36:50.273Z,8.23
2022-08-29T20:39:20.039Z,9.10
2022-08-29T20:41:50.188Z,7.20
2022-08-29T20:44:20.337Z,7.63
2022-08-29T20:46:48.771Z,7.22
2022-08-29T20:49:22.622Z,7.90
2022-08-29T20:51:50.995Z,7.78
2022-08-29T20:54:22.195Z,8.07
2022-08-29T20:56:50.181Z,8.25
2022-08-29T20:59:19.167Z,9.50
2022-08-29T21:01:47.996Z,9.27
2022-08-29T21:04:34.706Z,9.38
2022-08-29T21:07:07.353Z,9.68
2022-08-29T21:09:43.356Z,10.75
2022-08-29T21:12:13.063Z,10.65
2022-08-29T21:14:40.726Z,10.30
2022-08-29T21:17:10.975Z,10.07
2022-08-29T21:19:38.837Z,9.98
2022-08-29T21:22:08.500Z,9.90
2022-08-29T21:24:36.007Z,11.00
2022-08-29T21:27:04.124Z,10.32
2022-08-29T21:29:31.919Z,10.60
2022-08-29T21:31:59.517Z,10.77
2022-08-29T21:34:27.043Z,10.75
2022-08-29T21:36:54.524Z,11.20
2022-08-29T21:39:28.885Z,12.30
2022-08-29T21:41:57.157Z,11.88
2022-08-29T21:44:24.759Z,10.43
2022-08-29T21:46:52.746Z,10.98
2022-08-29T21:49:21.883Z,10.40
2022-08-29T21:51:49.839Z,10.82
2022-08-29T21:54:18.129Z,11.10
2022-08-29T21:56:46.387Z,10.98
2022-08-29T21:59:16.761Z,11.73
2022-08-29T22:01:46.262Z,10.48
2022-08-29T22:04:18.884Z,11.20
2022-08-29T22:06:55.496Z,10.40
2022-08-29T22:09:25.678Z,10.68
2022-08-29T22:11:53.347Z,10.55
2022-08-29T22:14:21.079Z,10.30
2022-08-29T22:16:49.394Z,9.90
2022-08-29T22:19:17.979Z,9.45
2022-08-29T22:21:49.433Z,9.77
2022-08-29T22:24:18.018Z,9.90
2022-08-29T22:26:47.216Z,9.35
2022-08-29T22:29:16.193Z,10.02
2022-08-29T22:31:44.996Z,9.95
2022-08-29T22:34:14.357Z,9.50
2022-08-29T22:36:42.190Z,9.50
2022-08-29T22:39:09.808Z,9.35
2022-08-29T22:41:37.481Z,9.70
2022-08-29T22:46:54.046Z,9.35
2022-08-29T22:49:21.694Z,8.77
2022-08-29T22:51:49.246Z,7.97
2022-08-29T22:54:35.206Z,8.43
2022-08-29T22:57:09.096Z,9.00
2022-08-29T22:59:37.892Z,8.00
2022-08-29T23:02:06.522Z,9.38
2022-08-29T23:04:34.649Z,9.23
2022-08-29T23:07:03.080Z,9.18
2022-08-29T23:09:35.326Z,10.07
2022-08-29T23:12:05.612Z,9.25
2022-08-29T23:14:36.039Z,9.65
2022-08-29T23:17:08.750Z,9.48
2022-08-29T23:19:37.043Z,9.32
2022-08-29T23:22:11.352Z,9.00
2022-08-29T23:24:41.570Z,9.13
2022-08-29T23:27:28.034Z,8.52
2022-08-29T23:29:55.781Z,9.55
2022-08-29T23:32:23.253Z,9.55
2022-08-29T23:34:50.692Z,9.82
2022-08-29T23:37:18.223Z,9.95
2022-08-29T23:39:46.809Z,9.68
2022-08-29T23:42:14.285Z,9.27
2022-08-29T23:44:41.713Z,9.00
2022-08-29T23:47:09.198Z,9.52
2022-08-29T23:49:36.631Z,10.23
2022-08-29T23:52:04.917Z,9.52
2022-08-29T23:54:32.430Z,10.27
2022-08-29T23:56:59.834Z,10.38
2022-08-29T23:59:45.720Z,11.65
